createdAt,value
2022-08-23T00:00:29.238Z,19.30
2022-08-23T00:05:03.433Z,19.30
2022-08-23T00:09:11.718Z,19.30
2022-08-23T00:13:22.557Z,19.30
2022-08-23T00:17:34.441Z,19.30
2022-08-23T00:21:45.617Z,19.30
2022-08-23T00:25:54.835Z,19.30
2022-08-23T00:30:09.698Z,19.30
2022-08-23T00:34:19.142Z,19.30
2022-08-23T00:38:33.257Z,19.30
2022-08-23T00:43:06.440Z,19.30
2022-08-23T00:47:35.016Z,19.30
2022-08-23T00:51:52.738Z,19.30
2022-08-23T00:56:05.322Z,19.30
2022-08-23T01:00:16.221Z,19.30
2022-08-23T01:04:28.996Z,19.30
2022-08-23T01:08:40.094Z,19.30
2022-08-23T01:12:54.578Z,19.30
2022-08-23T01:17:07.260Z,19.30
2022-08-23T01:21:24.258Z,19.30
2022-08-23T01:25:36.660Z,19.30
2022-08-23T01:29:45.918Z,19.30
2022-08-23T01:33:59.859Z,19.30
2022-08-23T01:38:10.026Z,19.30
2022-08-23T01:42:21.739Z,19.30
2022-08-23T01:46:31.061Z,19.30
2022-08-23T01:50:40.567Z,19.30
2022-08-23T01:54:49.761Z,19.30
2022-08-23T01:59:01.000Z,19.30
2022-08-23T02:03:12.865Z,19.30
2022-08-23T02:07:22.577Z,19.30
2022-08-23T02:11:34.460Z,19.30
2022-08-23T02:15:47.337Z,19.30
2022-08-23T02:19:57.016Z,19.30
2022-08-23T02:24:08.077Z,19.30
2022-08-23T02:28:17.856Z,19.30
2022-08-23T02:32:28.718Z,19.30
2022-08-23T02:36:37.997Z,19.30
2022-08-23T02:40:47.437Z,19.20
2022-08-23T02:45:02.515Z,19.30
2022-08-23T02:49:13.838Z,19.30
2022-08-23T02:53:23.099Z,19.30
2022-08-23T02:57:32.341Z,19.30
2022-08-23T03:01:42.737Z,19.30
2022-08-23T03:05:53.598Z,19.30
2022-08-23T03:10:03.499Z,19.30
2022-08-23T03:14:13.484Z,19.30
2022-08-23T03:18:23.002Z,19.30
2022-08-23T03:22:34.121Z,19.30
2022-08-23T03:26:44.897Z,19.30
2022-08-23T03:30:54.558Z,19.30
2022-08-23T03:35:03.939Z,19.30
2022-08-23T03:39:22.182Z,19.30
2022-08-23T03:43:32.279Z,19.30
2022-08-23T03:47:43.780Z,19.30
2022-08-23T03:51:53.777Z,19.30
2022-08-23T03:56:08.479Z,19.40
2022-08-23T04:00:20.269Z,19.30
2022-08-23T04:04:30.621Z,19.30
2022-08-23T04:08:40.159Z,19.30
2022-08-23T04:12:53.099Z,19.30
2022-08-23T04:17:02.818Z,19.30
2022-08-23T04:21:19.060Z,19.30
2022-08-23T04:25:34.255Z,19.30
2022-08-23T04:29:47.419Z,19.30
2022-08-23T04:33:58.860Z,19.30
2022-08-23T04:38:24.210Z,19.30
2022-08-23T04:42:34.563Z,19.30
2022-08-23T04:46:46.141Z,19.30
2022-08-23T04:50:56.758Z,19.40
2022-08-23T04:55:11.998Z,19.30
2022-08-23T04:59:21.777Z,19.30
2022-08-23T05:03:33.759Z,19.30
2022-08-23T05:07:43.330Z,19.30
2022-08-23T05:11:53.120Z,19.30
2022-08-23T05:16:03.401Z,19.30
2022-08-23T05:20:14.897Z,19.30
2022-08-23T05:24:24.777Z,19.30
2022-08-23T05:33:06.918Z,19.30
2022-08-23T05:37:18.998Z,19.30
2022-08-23T05:41:37.789Z,19.30
2022-08-23T05:45:50.239Z,19.30
2022-08-23T05:49:59.926Z,19.40
2022-08-23T05:54:11.626Z,19.40
2022-08-23T05:58:21.128Z,19.40
2022-08-23T06:02:30.688Z,19.40
2022-08-23T06:06:42.084Z,19.40
2022-08-23T06:11:02.008Z,19.50
2022-08-23T06:15:12.463Z,19.50
2022-08-23T06:19:22.064Z,19.40
2022-08-23T06:23:32.790Z,19.50
2022-08-23T06:27:43.665Z,19.40
2022-08-23T06:31:55.088Z,19.40
2022-08-23T06:36:06.690Z,19.40
2022-08-23T06:40:17.894Z,19.50
2022-08-23T06:44:30.209Z,19.50
2022-08-23T06:48:39.992Z,19.50
2022-08-23T06:52:50.087Z,19.50
2022-08-23T06:57:00.791Z,19.60
2022-08-23T07:01:44.112Z,19.60
2022-08-23T07:05:53.446Z,19.70
2022-08-23T07:10:06.465Z,19.70
2022-08-23T07:14:18.205Z,19.70
2022-08-23T07:18:29.426Z,19.70
2022-08-23T07:22:38.865Z,19.70
2022-08-23T07:26:50.226Z,19.70
2022-08-23T07:36:01.963Z,19.70
2022-08-23T07:40:20.321Z,19.70
2022-08-23T07:44:31.890Z,19.60
2022-08-23T07:53:08.268Z,19.70
2022-08-23T07:57:17.586Z,19.80
2022-08-23T08:01:29.952Z,19.90
2022-08-23T08:05:39.749Z,19.80
2022-08-23T08:09:51.384Z,19.80
2022-08-23T08:14:01.106Z,19.90
2022-08-23T08:18:18.207Z,19.90
2022-08-23T08:22:27.728Z,20.00
2022-08-23T08:26:53.588Z,20.10
2022-08-23T08:31:06.632Z,20.10
2022-08-23T08:35:29.529Z,20.00
2022-08-23T08:39:46.279Z,20.10
2022-08-23T08:44:12.716Z,20.10
2022-08-23T08:48:26.827Z,20.20
2022-08-23T08:52:39.368Z,20.20
2022-08-23T08:56:53.366Z,20.30
2022-08-23T09:01:04.247Z,20.10
2022-08-23T09:05:16.489Z,20.20
2022-08-23T09:09:44.785Z,20.40
2022-08-23T09:14:38.245Z,20.60
2022-08-23T09:18:49.707Z,20.70
2022-08-23T09:23:05.908Z,20.90
2022-08-23T09:27:15.243Z,21.00
2022-08-23T09:31:43.172Z,21.00
2022-08-23T09:36:15.567Z,21.10
2022-08-23T09:40:38.948Z,21.30
2022-08-23T09:44:51.226Z,21.20
2022-08-23T09:49:01.829Z,21.30
2022-08-23T09:53:17.432Z,21.50
2022-08-23T09:57:30.665Z,21.60
2022-08-23T10:01:40.771Z,21.60
2022-08-23T10:05:53.025Z,21.60
2022-08-23T10:10:30.668Z,22.00
2022-08-23T10:14:40.368Z,22.10
2022-08-23T10:19:02.086Z,22.40
2022-08-23T10:23:22.273Z,22.50
2022-08-23T10:28:02.363Z,22.80
2022-08-23T10:32:26.485Z,22.80
2022-08-23T10:36:51.012Z,22.80
2022-08-23T10:41:16.006Z,22.80
2022-08-23T10:45:36.823Z,22.70
2022-08-23T10:49:54.327Z,22.80
2022-08-23T10:54:08.166Z,22.80
2022-08-23T10:58:26.690Z,22.90
2022-08-23T11:07:29.603Z,23.10
2022-08-23T11:11:48.225Z,22.90
2022-08-23T11:16:01.600Z,23.00
2022-08-23T11:20:15.528Z,22.90
2022-08-23T11:24:50.947Z,23.00
2022-08-23T11:29:31.305Z,23.20
2022-08-23T11:33:48.208Z,23.10
2022-08-23T11:38:04.992Z,23.20
2022-08-23T11:42:19.848Z,23.10
2022-08-23T11:46:36.271Z,23.10
2022-08-23T11:51:21.444Z,23.20
2022-08-23T11:56:18.346Z,23.30
2022-08-23T12:00:33.888Z,23.30
2022-08-23T12:04:55.886Z,23.40
2022-08-23T12:09:12.088Z,23.30
2022-08-23T12:13:55.988Z,23.40
2022-08-23T12:18:21.992Z,23.60
2022-08-23T12:22:58.485Z,23.70
2022-08-23T12:27:28.189Z,23.70
2022-08-23T12:31:46.049Z,23.80
2022-08-23T12:36:03.983Z,23.90
2022-08-23T12:40:25.248Z,23.50
2022-08-23T12:44:34.786Z,23.50
2022-08-23T12:48:49.125Z,23.60
2022-08-23T12:53:01.405Z,23.70
2022-08-23T12:57:19.344Z,23.80
2022-08-23T13:01:32.043Z,23.90
2022-08-23T13:05:45.936Z,24.00
2022-08-23T13:20:22.127Z,24.10
2022-08-23T13:25:28.205Z,24.20
2022-08-23T13:53:17.484Z,23.90
2022-08-23T14:07:07.548Z,24.00
2022-08-23T14:16:39.306Z,24.50
2022-08-23T14:20:53.888Z,24.10
2022-08-23T14:35:51.180Z,23.90
2022-08-23T14:41:08.928Z,23.60
2022-08-23T14:59:26.825Z,23.50
2022-08-23T15:03:36.361Z,23.60
2022-08-23T15:07:46.405Z,23.60
2022-08-23T15:12:57.201Z,23.60
2022-08-23T15:16:29.858Z,23.60
2022-08-23T15:20:41.528Z,23.60
2022-08-23T15:24:50.793Z,23.70
2022-08-23T15:29:01.928Z,23.70
2022-08-23T15:33:12.364Z,23.80
2022-08-23T15:37:22.985Z,23.80
2022-08-23T15:41:56.366Z,23.80
2022-08-23T15:55:22.407Z,23.80
2022-08-23T15:59:37.145Z,23.60
2022-08-23T16:09:03.147Z,23.40
2022-08-23T16:18:16.326Z,23.20
2022-08-23T16:22:51.306Z,23.20
2022-08-23T16:27:05.844Z,23.00
2022-08-23T16:31:16.859Z,23.00
2022-08-23T16:36:33.970Z,22.80
2022-08-23T16:41:15.985Z,23.10
2022-08-23T16:45:52.335Z,23.50
2022-08-23T18:08:36.188Z,22.00
2022-08-23T18:36:16.388Z,21.60
2022-08-23T19:01:02.350Z,21.00
